TimeMST,TemperatureF,Dew PointF,Humidity,Sea Level PressureIn,VisibilityMPH,Wind Direction,Wind SpeedMPH,Gust SpeedMPH,PrecipitationIn,Events,Conditions,WindDirDegrees,DateUTC
12:53 AM,24.1,16.0,71,30.16,10.0,Calm,Calm,-,N/A,,Clear,0,2012-11-24 07:53:00
1:53 AM,24.1,16.0,71,30.13,10.0,NW,3.5,-,N/A,,Clear,310,2012-11-24 08:53:00
2:53 AM,24.1,16.0,71,30.11,10.0,East,3.5,-,N/A,,Clear,80,2012-11-24 09:53:00
3:53 AM,26.1,16.0,66,30.09,10.0,Calm,Calm,-,N/A,,Clear,0,2012-11-24 10:53:00
4:53 AM,26.1,17.1,69,30.11,10.0,North,3.5,-,N/A,,Clear,10,2012-11-24 11:53:00
5:53 AM,23.0,17.1,78,30.09,10.0,Calm,Calm,-,N/A,,Clear,0,2012-11-24 12:53:00
6:53 AM,23.0,16.0,74,30.09,10.0,Calm,Calm,-,N/A,,Clear,0,2012-11-24 13:53:00
7:53 AM,28.0,19.0,69,30.04,10.0,North,3.5,-,N/A,,Clear,10,2012-11-24 14:53:00
8:53 AM,46.0,24.1,42,30.01,10.0,Calm,Calm,-,N/A,,Clear,0,2012-11-24 15:53:00
9:53 AM,57.9,23.0,26,29.96,10.0,Calm,Calm,-,N/A,,Clear,0,2012-11-24 16:53:00
10:53 AM,66.9,21.0,17,29.91,10.0,West,18.4,24.2,N/A,,Clear,280,2012-11-24 17:53:00
11:53 AM,66.0,16.0,15,29.88,10.0,WNW,17.3,24.2,N/A,,Clear,300,2012-11-24 18:53:00
12:53 PM,66.9,16.0,14,29.87,10.0,WNW,19.6,24.2,N/A,,Clear,290,2012-11-24 19:53:00
1:53 PM,62.1,15.1,16,29.88,10.0,WNW,13.8,23.0,N/A,,Clear,300,2012-11-24 20:53:00
2:53 PM,63.0,16.0,16,29.86,10.0,WNW,13.8,21.9,N/A,,Clear,290,2012-11-24 21:53:00
3:53 PM,55.9,17.1,22,29.90,10.0,NNW,9.2,-,N/A,,Clear,340,2012-11-24 22:53:00
4:53 PM,48.9,17.1,28,29.93,10.0,North,9.2,-,N/A,,Clear,10,2012-11-24 23:53:00
5:53 PM,42.1,18.0,38,29.97,10.0,NE,6.9,-,N/A,,Clear,50,2012-11-25 00:53:00
6:53 PM,41.0,19.9,43,30.00,10.0,WSW,3.5,-,N/A,,Clear,250,2012-11-25 01:53:00
7:53 PM,42.1,21.0,43,30.00,10.0,Calm,Calm,-,N/A,,Clear,0,2012-11-25 02:53:00
8:53 PM,39.0,21.0,49,29.96,10.0,North,4.6,-,N/A,,Clear,10,2012-11-25 03:53:00
9:53 PM,33.1,21.0,61,29.95,10.0,Calm,Calm,-,N/A,,Clear,0,2012-11-25 04:53:00
10:53 PM,36.0,23.0,59,29.93,10.0,Calm,Calm,-,N/A,,Clear,0,2012-11-25 05:53:00
11:53 PM,37.9,23.0,55,29.94,10.0,NNE,4.6,-,N/A,,Partly Cloudy,30,2012-11-25 06:53:00